createdAt,value
2023-01-23T00:01:31.388Z,5.74
2023-01-23T00:04:00.701Z,5.63
2023-01-23T00:06:29.285Z,5.67
2023-01-23T00:08:57.727Z,5.94
2023-01-23T00:11:28.502Z,5.79
2023-01-23T00:13:58.551Z,5.53
2023-01-23T00:16:28.486Z,5.71
2023-01-23T00:18:57.119Z,5.92
2023-01-23T00:21:27.626Z,6.07
2023-01-23T00:23:57.515Z,5.61
2023-01-23T00:26:27.145Z,5.90
2023-01-23T00:28:56.026Z,5.93
2023-01-23T00:31:27.047Z,5.95
2023-01-23T00:33:56.811Z,5.93
2023-01-23T00:36:25.417Z,5.96
2023-01-23T00:38:56.094Z,5.90
2023-01-23T00:41:24.196Z,6.07
2023-01-23T00:43:52.311Z,5.92
2023-01-23T00:46:20.613Z,5.78
2023-01-23T00:48:50.372Z,5.74
2023-01-23T00:51:20.137Z,5.82
2023-01-23T00:53:48.207Z,5.69
2023-01-23T00:56:16.181Z,5.65
2023-01-23T00:58:45.245Z,5.75
2023-01-23T01:01:13.985Z,5.42
2023-01-23T01:03:42.270Z,5.60
2023-01-23T01:06:12.272Z,5.79
2023-01-23T01:08:40.335Z,5.84
2023-01-23T01:11:09.024Z,5.84
2023-01-23T01:13:37.421Z,5.61
2023-01-23T01:16:06.131Z,5.92
2023-01-23T01:18:34.260Z,5.84
2023-01-23T01:21:02.396Z,5.61
2023-01-23T01:23:31.620Z,5.43
2023-01-23T01:26:00.479Z,5.41
2023-01-23T01:28:30.321Z,5.76
2023-01-23T01:30:58.660Z,5.64
2023-01-23T01:33:28.735Z,5.39
2023-01-23T01:35:58.037Z,5.66
2023-01-23T01:38:26.251Z,5.71
2023-01-23T01:40:57.285Z,5.74
2023-01-23T01:43:26.951Z,5.63
2023-01-23T01:46:07.712Z,5.84
2023-01-23T01:48:41.601Z,5.78
2023-01-23T01:51:18.417Z,5.74
2023-01-23T01:53:49.908Z,5.36
2023-01-23T01:56:20.096Z,5.53
2023-01-23T01:58:53.005Z,5.69
2023-01-23T02:01:21.563Z,5.63
2023-01-23T02:03:51.832Z,5.64
2023-01-23T02:06:20.670Z,5.99
2023-01-23T02:08:54.534Z,5.77
2023-01-23T02:11:24.171Z,5.87
2023-01-23T02:13:55.307Z,6.07
2023-01-23T02:16:28.128Z,5.98
2023-01-23T02:19:00.593Z,5.81
2023-01-23T02:21:29.114Z,5.84
2023-01-23T02:24:19.635Z,5.97
2023-01-23T02:26:48.990Z,5.73
2023-01-23T02:29:19.234Z,5.86
2023-01-23T02:31:56.242Z,5.82
2023-01-23T02:34:26.055Z,5.76
2023-01-23T02:36:58.779Z,5.70
2023-01-23T02:39:27.600Z,5.85
2023-01-23T02:42:00.571Z,5.41
2023-01-23T02:44:43.348Z,5.48
2023-01-23T02:47:12.470Z,5.86
2023-01-23T02:49:42.829Z,5.63
2023-01-23T02:52:11.477Z,5.79
2023-01-23T02:54:40.348Z,5.87
2023-01-23T02:57:10.210Z,5.87
2023-01-23T02:59:57.239Z,5.88
2023-01-23T03:02:26.569Z,5.84
2023-01-23T03:04:54.614Z,5.92
2023-01-23T03:07:22.514Z,5.86
2023-01-23T03:09:51.051Z,5.84
2023-01-23T03:12:20.325Z,5.91
2023-01-23T03:14:48.579Z,5.72
2023-01-23T03:17:16.535Z,5.51
2023-01-23T03:19:44.427Z,5.79
2023-01-23T03:22:12.376Z,5.57
2023-01-23T03:24:40.516Z,5.30
2023-01-23T03:27:08.611Z,5.48
2023-01-23T03:30:04.207Z,5.63
2023-01-23T03:32:32.129Z,5.74
2023-01-23T03:35:00.701Z,5.68
2023-01-23T03:37:29.079Z,5.67
2023-01-23T03:40:15.829Z,4.78
2023-01-23T03:42:44.241Z,5.16
2023-01-23T03:45:16.682Z,5.40
2023-01-23T03:47:44.681Z,5.53
2023-01-23T03:50:12.667Z,5.81
2023-01-23T03:52:41.196Z,5.14
2023-01-23T03:55:10.603Z,4.92
2023-01-23T03:57:39.335Z,5.27
2023-01-23T04:00:28.881Z,5.58
2023-01-23T04:03:01.603Z,5.92
2023-01-23T04:05:30.091Z,5.92
2023-01-23T04:07:58.116Z,5.75
2023-01-23T04:10:26.804Z,5.97
2023-01-23T04:12:58.066Z,5.70
2023-01-23T04:15:28.391Z,5.42
2023-01-23T04:17:58.574Z,5.72
2023-01-23T04:20:27.259Z,5.51
2023-01-23T04:22:57.017Z,5.51
2023-01-23T04:25:25.050Z,5.21
2023-01-23T04:27:53.575Z,4.78
2023-01-23T04:30:22.169Z,4.98
2023-01-23T04:32:51.862Z,4.49
2023-01-23T04:35:20.958Z,5.03
2023-01-23T04:37:48.899Z,4.77
2023-01-23T04:40:18.017Z,4.67
2023-01-23T04:42:56.200Z,4.89
2023-01-23T04:45:32.277Z,5.30
2023-01-23T04:48:14.686Z,5.56
2023-01-23T04:50:44.069Z,5.82
2023-01-23T04:53:12.357Z,5.81
2023-01-23T04:55:40.521Z,5.84
2023-01-23T04:58:12.473Z,5.98
2023-01-23T05:00:41.121Z,6.01
2023-01-23T05:03:09.161Z,6.06
2023-01-23T05:05:44.225Z,5.91
2023-01-23T05:08:12.622Z,5.97
2023-01-23T05:10:41.856Z,5.66
2023-01-23T05:13:12.707Z,5.78
2023-01-23T05:15:41.111Z,5.92
2023-01-23T05:18:09.045Z,6.11
2023-01-23T05:20:37.488Z,5.82
2023-01-23T05:23:07.678Z,5.28
2023-01-23T05:25:47.458Z,5.16
2023-01-23T05:28:15.458Z,4.84
2023-01-23T05:30:48.987Z,5.24
2023-01-23T05:33:23.694Z,5.28
2023-01-23T05:35:51.651Z,5.51
2023-01-23T05:38:21.330Z,5.28
2023-01-23T05:40:51.478Z,5.63
2023-01-23T05:43:37.900Z,5.59
2023-01-23T05:46:25.921Z,5.78
2023-01-23T05:48:54.242Z,6.04
2023-01-23T05:51:23.506Z,5.94
2023-01-23T05:53:53.828Z,6.07
2023-01-23T05:56:21.888Z,6.05
2023-01-23T05:59:24.574Z,5.84
2023-01-23T06:02:12.979Z,5.48
2023-01-23T06:04:59.199Z,5.64
2023-01-23T06:07:39.008Z,5.13
2023-01-23T06:10:12.023Z,5.76
2023-01-23T06:12:40.070Z,5.75
2023-01-23T06:15:09.335Z,5.58
2023-01-23T06:17:37.466Z,5.53
2023-01-23T06:20:07.115Z,5.89
2023-01-23T06:22:35.244Z,5.67
2023-01-23T06:25:08.603Z,6.02
2023-01-23T06:27:38.683Z,5.75
2023-01-23T06:30:10.871Z,6.18
2023-01-23T06:32:41.875Z,5.74
2023-01-23T06:35:11.378Z,5.99
2023-01-23T06:37:42.314Z,5.85
2023-01-23T06:40:13.948Z,5.91
2023-01-23T06:42:50.960Z,6.04
2023-01-23T06:45:19.379Z,6.01
2023-01-23T06:47:47.706Z,6.12
2023-01-23T06:50:17.570Z,5.32
2023-01-23T06:52:45.696Z,5.69
2023-01-23T06:55:14.691Z,5.94
2023-01-23T06:57:45.031Z,5.90
2023-01-23T07:00:16.543Z,6.05
2023-01-23T07:02:45.796Z,5.60
2023-01-23T07:05:14.661Z,5.81
2023-01-23T07:07:46.583Z,5.78
2023-01-23T07:10:14.675Z,5.78
2023-01-23T07:12:42.610Z,5.31
2023-01-23T07:15:12.110Z,5.39
2023-01-23T07:17:43.765Z,5.88
2023-01-23T07:20:12.951Z,5.60
2023-01-23T07:22:43.805Z,5.72
2023-01-23T07:25:11.745Z,5.79
2023-01-23T07:27:39.651Z,6.10
2023-01-23T07:30:08.815Z,5.91
2023-01-23T07:32:36.744Z,5.89
2023-01-23T07:35:07.179Z,6.19
2023-01-23T07:37:35.618Z,5.82
2023-01-23T07:40:03.757Z,5.89
2023-01-23T07:42:31.726Z,5.88
2023-01-23T07:44:59.644Z,5.81
2023-01-23T07:47:27.656Z,5.98
2023-01-23T07:49:55.519Z,5.98
2023-01-23T07:52:24.890Z,6.15
2023-01-23T07:54:52.767Z,5.99
2023-01-23T07:57:20.765Z,6.04
2023-01-23T07:59:48.978Z,5.98
2023-01-23T08:02:16.847Z,5.89
2023-01-23T08:04:44.789Z,6.07
2023-01-23T08:07:12.744Z,6.13
2023-01-23T08:09:42.018Z,6.31
2023-01-23T08:12:09.961Z,6.37
2023-01-23T08:14:37.912Z,6.02
2023-01-23T08:17:06.587Z,6.04
2023-01-23T08:19:34.475Z,6.15
2023-01-23T08:22:02.380Z,6.20
2023-01-23T08:24:30.301Z,6.23
2023-01-23T08:26:59.713Z,6.32
2023-01-23T08:29:27.768Z,6.30
2023-01-23T08:31:55.789Z,6.29
2023-01-23T08:34:24.091Z,6.32
2023-01-23T08:36:52.443Z,6.41
2023-01-23T08:39:21.141Z,5.85
2023-01-23T08:41:49.095Z,6.05
2023-01-23T08:44:18.431Z,5.86
2023-01-23T08:46:46.975Z,6.32
2023-01-23T08:49:14.909Z,5.38
2023-01-23T08:51:42.816Z,5.56
2023-01-23T08:54:10.694Z,5.60
2023-01-23T08:56:40.962Z,5.88
2023-01-23T08:59:09.017Z,6.06
2023-01-23T09:01:38.335Z,6.27
2023-01-23T09:04:06.453Z,6.11
2023-01-23T09:06:34.463Z,5.91
2023-01-23T09:09:02.595Z,6.29
2023-01-23T09:11:30.515Z,6.22
2023-01-23T09:13:58.516Z,6.50
2023-01-23T09:16:26.460Z,6.14
2023-01-23T09:18:57.324Z,6.14
2023-01-23T09:21:25.470Z,6.29
2023-01-23T09:23:53.487Z,6.19
2023-01-23T09:26:21.400Z,6.12
2023-01-23T09:28:49.308Z,6.22
2023-01-23T09:31:17.267Z,6.33
2023-01-23T09:33:45.210Z,6.16
2023-01-23T09:36:14.465Z,6.48
2023-01-23T09:38:42.389Z,6.42
2023-01-23T09:41:16.849Z,6.26
2023-01-23T09:43:53.039Z,6.24
2023-01-23T09:46:26.113Z,6.07
2023-01-23T09:49:00.259Z,5.80
2023-01-23T09:51:35.408Z,6.40
2023-01-23T09:54:12.186Z,6.31
2023-01-23T09:56:45.114Z,6.46
2023-01-23T09:59:15.609Z,6.40
2023-01-23T10:01:43.571Z,6.79
2023-01-23T10:04:13.818Z,6.87
2023-01-23T10:07:14.782Z,6.72
2023-01-23T10:10:02.724Z,6.78
2023-01-23T10:12:45.774Z,6.53
2023-01-23T10:15:25.062Z,6.67
2023-01-23T10:18:03.863Z,6.68
2023-01-23T10:20:51.041Z,6.15
2023-01-23T10:23:47.883Z,6.59
2023-01-23T10:26:21.747Z,6.53
2023-01-23T10:28:49.823Z,6.79
2023-01-23T10:31:30.063Z,6.88
2023-01-23T10:34:07.969Z,6.54
2023-01-23T10:36:47.830Z,6.55
2023-01-23T10:39:28.406Z,6.75
2023-01-23T10:42:02.019Z,6.64
2023-01-23T10:44:31.027Z,6.65
2023-01-23T10:47:03.737Z,6.71
2023-01-23T10:49:35.238Z,6.87
2023-01-23T10:52:03.335Z,6.75
2023-01-23T10:54:45.786Z,6.62
2023-01-23T10:57:24.395Z,6.84
2023-01-23T10:59:56.805Z,6.93
2023-01-23T11:02:29.914Z,6.66
2023-01-23T11:04:57.883Z,6.74
2023-01-23T11:07:27.565Z,7.05
2023-01-23T11:09:59.115Z,7.03
2023-01-23T11:12:29.132Z,6.84
2023-01-23T11:15:13.129Z,6.77
2023-01-23T11:17:43.347Z,6.87
2023-01-23T11:20:26.252Z,7.16
2023-01-23T11:23:07.057Z,6.56
2023-01-23T11:25:38.514Z,6.69
2023-01-23T11:28:23.451Z,7.09
2023-01-23T11:31:03.779Z,7.07
2023-01-23T11:33:44.366Z,7.13
2023-01-23T11:36:31.066Z,7.09
2023-01-23T11:39:04.943Z,7.17
2023-01-23T11:41:36.953Z,6.81
2023-01-23T11:44:11.313Z,7.15
2023-01-23T11:47:01.616Z,7.29
2023-01-23T11:49:51.434Z,7.19
2023-01-23T11:52:31.680Z,6.88
2023-01-23T11:55:18.597Z,6.75
2023-01-23T11:57:58.596Z,6.97
2023-01-23T12:00:33.887Z,6.76
2023-01-23T12:03:47.509Z,6.93
2023-01-23T12:06:30.958Z,6.89
2023-01-23T12:09:03.816Z,7.19
2023-01-23T12:11:39.602Z,6.97
2023-01-23T12:14:17.164Z,6.68
2023-01-23T12:17:02.919Z,6.97
2023-01-23T12:20:02.698Z,7.12
2023-01-23T12:22:43.705Z,7.15
2023-01-23T12:25:24.354Z,7.24
2023-01-23T12:28:01.835Z,7.06
2023-01-23T12:30:54.209Z,6.84
2023-01-23T12:33:39.406Z,6.62
2023-01-23T12:36:31.464Z,7.14
2023-01-23T12:39:10.548Z,7.06
2023-01-23T12:41:43.899Z,6.76
2023-01-23T12:44:17.712Z,6.65
2023-01-23T12:46:52.551Z,6.23
2023-01-23T12:49:30.827Z,6.58
2023-01-23T12:52:03.597Z,6.83
2023-01-23T12:54:38.325Z,7.01
2023-01-23T12:57:09.306Z,7.05
2023-01-23T12:59:53.141Z,7.03
2023-01-23T13:02:35.445Z,6.51
2023-01-23T13:05:16.437Z,6.53
2023-01-23T13:07:53.498Z,6.55
2023-01-23T13:11:04.955Z,7.16
2023-01-23T13:13:33.575Z,6.61
2023-01-23T13:16:12.491Z,6.80
2023-01-23T13:19:10.347Z,6.55
2023-01-23T13:21:55.497Z,6.43
2023-01-23T13:24:50.422Z,6.66
2023-01-23T13:27:45.533Z,7.10
2023-01-23T13:30:43.326Z,6.90
2023-01-23T13:33:55.301Z,6.89
2023-01-23T13:36:29.653Z,6.82
2023-01-23T13:39:23.732Z,6.96
2023-01-23T13:41:53.919Z,6.88
2023-01-23T13:44:35.808Z,6.77
2023-01-23T14:22:08.469Z,7.16
2023-01-23T14:24:45.019Z,7.10
2023-01-23T14:27:22.021Z,7.14
2023-01-23T14:29:59.559Z,7.08
2023-01-23T14:32:30.923Z,7.07
2023-01-23T14:34:59.213Z,7.09
2023-01-23T14:37:29.262Z,7.03
2023-01-23T14:40:09.908Z,6.92
2023-01-23T14:42:40.347Z,6.84
2023-01-23T14:45:13.785Z,6.80
2023-01-23T14:47:46.963Z,6.90
2023-01-23T14:50:19.755Z,6.71
2023-01-23T14:52:57.742Z,6.89
2023-01-23T14:55:30.259Z,6.78
2023-01-23T14:58:01.141Z,6.57
2023-01-23T15:00:30.389Z,6.51
2023-01-23T15:02:58.478Z,6.34
2023-01-23T15:05:28.332Z,6.23
2023-01-23T15:07:59.082Z,6.53
2023-01-23T15:10:30.681Z,6.67
2023-01-23T15:13:02.046Z,6.42
2023-01-23T15:15:31.679Z,6.51
2023-01-23T15:18:01.493Z,6.63
2023-01-23T15:20:32.913Z,6.63
2023-01-23T15:23:21.920Z,6.63
2023-01-23T15:26:00.875Z,6.51
2023-01-23T15:28:39.481Z,6.42
2023-01-23T15:31:22.097Z,6.34
2023-01-23T15:33:50.107Z,6.46
2023-01-23T15:36:26.266Z,6.69
2023-01-23T15:38:55.148Z,6.80
2023-01-23T15:41:40.841Z,6.55
2023-01-23T15:44:17.207Z,6.79
2023-01-23T15:46:45.146Z,6.76
2023-01-23T15:49:24.352Z,6.25
2023-01-23T15:51:53.386Z,6.51
2023-01-23T15:54:25.338Z,6.67
2023-01-23T15:57:06.542Z,6.75
2023-01-23T15:59:36.833Z,6.59
2023-01-23T16:02:05.155Z,6.41
2023-01-23T16:04:33.046Z,6.51
2023-01-23T16:07:05.917Z,6.28
2023-01-23T16:09:36.991Z,6.32
2023-01-23T16:12:06.909Z,6.51
2023-01-23T16:14:34.798Z,6.58
2023-01-23T16:17:15.949Z,6.61
2023-01-23T16:19:44.953Z,6.55
2023-01-23T16:22:23.674Z,6.67
2023-01-23T16:24:51.633Z,6.52
2023-01-23T16:27:27.131Z,6.80
2023-01-23T16:29:55.710Z,6.47
2023-01-23T16:32:25.087Z,6.40
2023-01-23T16:34:53.206Z,6.57
2023-01-23T16:37:21.300Z,6.30
2023-01-23T16:39:49.226Z,6.57
2023-01-23T16:42:21.972Z,6.35
2023-01-23T16:44:50.147Z,6.53
2023-01-23T16:47:18.252Z,6.55
2023-01-23T16:49:52.618Z,6.61
2023-01-23T16:52:24.423Z,6.60
2023-01-23T16:54:53.573Z,6.56
2023-01-23T16:57:23.642Z,6.48
2023-01-23T16:59:52.251Z,6.33
2023-01-23T17:02:23.734Z,6.42
2023-01-23T17:04:51.847Z,6.46
2023-01-23T17:07:20.576Z,6.41
2023-01-23T17:09:49.246Z,6.38
2023-01-23T17:12:22.005Z,6.41
2023-01-23T17:14:52.938Z,6.42
2023-01-23T17:17:29.999Z,6.50
2023-01-23T17:19:58.476Z,6.42
2023-01-23T17:22:30.443Z,6.47
2023-01-23T17:24:58.532Z,6.35
2023-01-23T17:27:26.564Z,6.35
2023-01-23T17:29:55.784Z,6.27
2023-01-23T17:32:29.909Z,6.47
2023-01-23T17:35:01.627Z,6.48
2023-01-23T17:37:31.128Z,6.44
2023-01-23T17:39:59.033Z,6.39
2023-01-23T17:42:27.033Z,6.52
2023-01-23T17:44:56.354Z,6.58
2023-01-23T17:47:24.426Z,6.34
2023-01-23T17:49:54.726Z,6.50
2023-01-23T17:52:24.897Z,6.48
2023-01-23T17:54:54.403Z,6.34
2023-01-23T17:57:22.464Z,6.51
2023-01-23T17:59:51.572Z,6.42
2023-01-23T18:02:27.286Z,6.51
2023-01-23T18:04:56.211Z,6.51
2023-01-23T18:07:24.107Z,6.33
2023-01-23T18:09:52.522Z,6.44
2023-01-23T18:12:29.977Z,6.01
2023-01-23T18:15:07.455Z,6.26
2023-01-23T18:17:44.401Z,6.00
2023-01-23T18:20:20.291Z,6.17
2023-01-23T18:22:48.854Z,5.87
2023-01-23T18:25:18.855Z,6.15
2023-01-23T18:27:50.210Z,6.07
2023-01-23T18:30:36.179Z,6.40
2023-01-23T18:33:34.183Z,6.20
2023-01-23T18:36:20.203Z,6.23
2023-01-23T18:39:03.981Z,6.44
2023-01-23T18:41:32.360Z,6.38
2023-01-23T18:44:11.947Z,6.36
2023-01-23T18:46:41.432Z,6.52
2023-01-23T18:49:14.934Z,6.20
2023-01-23T18:51:50.189Z,6.36
2023-01-23T18:54:25.603Z,6.22
2023-01-23T18:57:07.388Z,6.36
2023-01-23T18:59:44.233Z,6.37
2023-01-23T19:02:22.292Z,6.35
2023-01-23T19:04:59.522Z,6.29
2023-01-23T19:07:27.663Z,6.03
2023-01-23T19:09:56.148Z,6.15
2023-01-23T19:12:31.544Z,6.24
2023-01-23T19:15:10.756Z,6.20
2023-01-23T19:17:47.835Z,6.19
2023-01-23T19:20:24.037Z,6.18
2023-01-23T19:23:01.656Z,6.18
2023-01-23T19:25:30.211Z,5.97
2023-01-23T19:28:00.925Z,6.28
2023-01-23T19:30:29.579Z,6.31
2023-01-23T19:32:57.456Z,5.95
2023-01-23T19:35:26.858Z,6.34
2023-01-23T19:37:54.895Z,6.27
2023-01-23T19:40:22.853Z,6.09
2023-01-23T19:43:05.727Z,6.19
2023-01-23T19:45:41.207Z,6.39
2023-01-23T19:48:09.406Z,6.16
2023-01-23T19:50:39.022Z,6.34
2023-01-23T19:53:07.362Z,6.25
2023-01-23T19:55:38.263Z,6.27
2023-01-23T19:58:06.300Z,6.18
2023-01-23T20:00:36.213Z,6.21
2023-01-23T20:03:05.363Z,6.31
2023-01-23T20:05:33.485Z,6.23
2023-01-23T20:08:02.793Z,6.23
2023-01-23T20:10:30.740Z,5.89
2023-01-23T20:12:58.563Z,5.93
2023-01-23T20:15:27.636Z,5.72
2023-01-23T20:17:55.560Z,6.00
2023-01-23T20:20:24.135Z,6.02
2023-01-23T20:22:52.264Z,6.06
2023-01-23T20:25:21.911Z,6.24
2023-01-23T20:27:49.979Z,6.29
2023-01-23T20:30:20.273Z,5.96
2023-01-23T20:32:49.117Z,5.88
2023-01-23T20:35:17.043Z,6.07
2023-01-23T20:37:44.972Z,6.09
2023-01-23T20:40:13.198Z,6.10
2023-01-23T20:42:42.507Z,5.91
2023-01-23T20:45:11.057Z,5.89
2023-01-23T20:47:38.906Z,6.07
2023-01-23T20:50:07.454Z,6.16
2023-01-23T20:52:52.506Z,6.25
2023-01-23T20:55:20.747Z,5.92
2023-01-23T20:58:07.676Z,6.00
2023-01-23T21:00:35.548Z,6.03
2023-01-23T21:03:03.554Z,5.83
2023-01-23T21:05:31.472Z,5.84
2023-01-23T21:07:59.390Z,5.88
2023-01-23T21:10:27.272Z,5.89
2023-01-23T21:12:56.496Z,5.63
2023-01-23T21:15:24.335Z,5.87
2023-01-23T21:17:52.197Z,5.94
2023-01-23T21:20:20.122Z,5.66
2023-01-23T21:22:48.101Z,5.85
2023-01-23T21:25:16.022Z,5.78
2023-01-23T21:27:43.919Z,5.67
2023-01-23T21:30:14.058Z,5.83
2023-01-23T21:32:41.970Z,5.40
2023-01-23T21:35:10.640Z,5.49
2023-01-23T21:37:38.506Z,5.64
2023-01-23T21:40:07.859Z,5.53
2023-01-23T21:42:35.760Z,5.66
2023-01-23T21:45:03.679Z,5.79
2023-01-23T21:47:32.916Z,5.38
2023-01-23T21:50:00.785Z,5.55
2023-01-23T21:52:29.603Z,5.42
2023-01-23T21:54:57.598Z,5.65
2023-01-23T21:57:25.468Z,5.81
2023-01-23T22:00:07.210Z,5.95
2023-01-23T22:02:42.328Z,5.70
2023-01-23T22:05:10.577Z,5.80
2023-01-23T22:07:38.501Z,5.84
2023-01-23T22:10:07.444Z,5.68
2023-01-23T22:12:35.317Z,5.86
2023-01-23T22:15:03.409Z,5.61
2023-01-23T22:17:31.679Z,5.70
2023-01-23T22:20:00.873Z,5.89
2023-01-23T22:22:28.769Z,5.80
2023-01-23T22:24:56.649Z,5.36
2023-01-23T22:27:24.762Z,5.57
2023-01-23T22:29:52.576Z,5.73
2023-01-23T22:32:20.501Z,5.66
2023-01-23T22:34:48.428Z,5.37
2023-01-23T22:37:17.757Z,5.72
2023-01-23T22:39:45.672Z,5.81
2023-01-23T22:42:13.743Z,5.28
2023-01-23T22:44:41.567Z,5.30
2023-01-23T22:47:09.533Z,5.36
2023-01-23T22:49:37.455Z,5.28
2023-01-23T22:52:07.020Z,5.35
2023-01-23T22:54:37.753Z,5.41
2023-01-23T22:57:05.682Z,5.43
2023-01-23T22:59:33.591Z,5.57
2023-01-23T23:02:01.483Z,5.33
2023-01-23T23:04:29.503Z,5.20
2023-01-23T23:06:57.395Z,5.42
2023-01-23T23:09:25.337Z,5.64
2023-01-23T23:11:54.541Z,5.30
2023-01-23T23:14:22.471Z,5.42
2023-01-23T23:16:50.363Z,5.42
2023-01-23T23:19:18.276Z,5.48
2023-01-23T23:21:46.133Z,5.44
2023-01-23T23:24:14.901Z,5.23
2023-01-23T23:26:42.957Z,5.30
2023-01-23T23:29:12.440Z,5.08
2023-01-23T23:31:40.523Z,4.92
2023-01-23T23:34:08.807Z,5.28
2023-01-23T23:36:36.810Z,5.21
2023-01-23T23:39:04.774Z,5.17
2023-01-23T23:41:32.638Z,5.45
2023-01-23T23:44:00.614Z,5.27
2023-01-23T23:46:29.847Z,5.35
2023-01-23T23:48:57.805Z,5.46
2023-01-23T23:51:26.640Z,5.22
2023-01-23T23:53:55.631Z,4.95
2023-01-23T23:56:25.383Z,5.12
2023-01-23T23:58:54.134Z,5.23
